sensor_id;sensor_type;location;lat;lon;timestamp;P1;durP1;ratioP1;P2;durP2;ratioP2
24030;SDS011;12240;51.142;22.486;2023-02-15T00:00:14;67.20;;;23.70;;
24030;SDS011;12240;51.142;22.486;2023-02-15T00:02:42;69.68;;;25.73;;
24030;SDS011;12240;51.142;22.486;2023-02-15T00:05:11;63.97;;;22.35;;
24030;SDS011;12240;51.142;22.486;2023-02-15T00:07:39;52.88;;;18.65;;
24030;SDS011;12240;51.142;22.486;2023-02-15T00:10:08;66.35;;;21.65;;
24030;SDS011;12240;51.142;22.486;2023-02-15T00:12:38;69.07;;;22.45;;
24030;SDS011;12240;51.142;22.486;2023-02-15T00:15:06;52.85;;;19.45;;
24030;SDS011;12240;51.142;22.486;2023-02-15T00:17:34;61.95;;;22.05;;
24030;SDS011;12240;51.142;22.486;2023-02-15T00:20:05;61.35;;;20.40;;
24030;SDS011;12240;51.142;22.486;2023-02-15T00:22:34;64.65;;;22.33;;
24030;SDS011;12240;51.142;22.486;2023-02-15T00:25:05;60.28;;;21.42;;
24030;SDS011;12240;51.142;22.486;2023-02-15T00:27:34;42.50;;;14.60;;
24030;SDS011;12240;51.142;22.486;2023-02-15T00:30:02;57.22;;;21.70;;
24030;SDS011;12240;51.142;22.486;2023-02-15T00:32:31;64.07;;;22.33;;
24030;SDS011;12240;51.142;22.486;2023-02-15T00:34:59;60.03;;;21.58;;
24030;SDS011;12240;51.142;22.486;2023-02-15T00:37:27;68.75;;;23.65;;
24030;SDS011;12240;51.142;22.486;2023-02-15T00:39:55;58.70;;;20.45;;
24030;SDS011;12240;51.142;22.486;2023-02-15T00:42:24;58.20;;;20.88;;
24030;SDS011;12240;51.142;22.486;2023-02-15T00:44:52;58.47;;;21.05;;
24030;SDS011;12240;51.142;22.486;2023-02-15T00:47:20;59.50;;;19.73;;
24030;SDS011;12240;51.142;22.486;2023-02-15T00:49:48;67.22;;;24.70;;
24030;SDS011;12240;51.142;22.486;2023-02-15T00:52:17;62.38;;;23.40;;
24030;SDS011;12240;51.142;22.486;2023-02-15T00:54:45;57.40;;;22.35;;
24030;SDS011;12240;51.142;22.486;2023-02-15T00:57:13;59.83;;;20.98;;
24030;SDS011;12240;51.142;22.486;2023-02-15T00:59:41;63.85;;;23.13;;
24030;SDS011;12240;51.142;22.486;2023-02-15T01:02:09;59.65;;;21.10;;
24030;SDS011;12240;51.142;22.486;2023-02-15T01:04:38;60.25;;;21.05;;
24030;SDS011;12240;51.142;22.486;2023-02-15T01:07:06;59.75;;;22.30;;
24030;SDS011;12240;51.142;22.486;2023-02-15T01:09:34;56.80;;;21.08;;
24030;SDS011;12240;51.142;22.486;2023-02-15T01:12:05;55.50;;;20.87;;
24030;SDS011;12240;51.142;22.486;2023-02-15T01:14:33;58.40;;;20.58;;
24030;SDS011;12240;51.142;22.486;2023-02-15T01:17:01;53.03;;;20.65;;
24030;SDS011;12240;51.142;22.486;2023-02-15T01:19:29;67.43;;;23.85;;
24030;SDS011;12240;51.142;22.486;2023-02-15T01:21:59;57.95;;;20.90;;
24030;SDS011;12240;51.142;22.486;2023-02-15T01:24:27;61.67;;;20.85;;
24030;SDS011;12240;51.142;22.486;2023-02-15T01:26:55;63.95;;;22.77;;
24030;SDS011;12240;51.142;22.486;2023-02-15T01:29:23;55.75;;;20.08;;
24030;SDS011;12240;51.142;22.486;2023-02-15T01:31:51;65.18;;;23.30;;
24030;SDS011;12240;51.142;22.486;2023-02-15T01:34:19;56.85;;;22.60;;
24030;SDS011;12240;51.142;22.486;2023-02-15T01:36:47;63.63;;;22.58;;
24030;SDS011;12240;51.142;22.486;2023-02-15T01:39:15;56.22;;;21.23;;
24030;SDS011;12240;51.142;22.486;2023-02-15T01:41:43;60.20;;;22.98;;
24030;SDS011;12240;51.142;22.486;2023-02-15T01:47:22;61.03;;;20.63;;
24030;SDS011;12240;51.142;22.486;2023-02-15T01:53:03;61.78;;;21.33;;
24030;SDS011;12240;51.142;22.486;2023-02-15T01:56:22;56.70;;;22.08;;
24030;SDS011;12240;51.142;22.486;2023-02-15T01:58:56;57.38;;;21.92;;
24030;SDS011;12240;51.142;22.486;2023-02-15T02:01:30;54.97;;;20.65;;
24030;SDS011;12240;51.142;22.486;2023-02-15T02:04:02;60.40;;;21.83;;
24030;SDS011;12240;51.142;22.486;2023-02-15T02:06:34;59.17;;;21.13;;
24030;SDS011;12240;51.142;22.486;2023-02-15T02:11:34;66.30;;;22.27;;
24030;SDS011;12240;51.142;22.486;2023-02-15T02:14:04;52.92;;;20.35;;
24030;SDS011;12240;51.142;22.486;2023-02-15T02:25:37;66.90;;;22.52;;
24030;SDS011;12240;51.142;22.486;2023-02-15T02:37:24;54.63;;;21.65;;
24030;SDS011;12240;51.142;22.486;2023-02-15T02:40:41;50.20;;;20.45;;
24030;SDS011;12240;51.142;22.486;2023-02-15T02:49:29;55.67;;;20.80;;
24030;SDS011;12240;51.142;22.486;2023-02-15T02:52:04;57.58;;;20.48;;
24030;SDS011;12240;51.142;22.486;2023-02-15T02:54:56;61.63;;;21.20;;
24030;SDS011;12240;51.142;22.486;2023-02-15T02:57:25;54.45;;;21.02;;
24030;SDS011;12240;51.142;22.486;2023-02-15T02:59:55;57.75;;;19.65;;
24030;SDS011;12240;51.142;22.486;2023-02-15T03:02:31;59.92;;;20.75;;
24030;SDS011;12240;51.142;22.486;2023-02-15T03:05:10;51.95;;;18.58;;
24030;SDS011;12240;51.142;22.486;2023-02-15T03:07:46;62.83;;;22.83;;
24030;SDS011;12240;51.142;22.486;2023-02-15T03:10:20;61.17;;;20.75;;
24030;SDS011;12240;51.142;22.486;2023-02-15T03:15:20;55.45;;;19.83;;
24030;SDS011;12240;51.142;22.486;2023-02-15T03:18:20;53.60;;;19.75;;
24030;SDS011;12240;51.142;22.486;2023-02-15T03:20:54;55.92;;;21.52;;
24030;SDS011;12240;51.142;22.486;2023-02-15T03:23:23;63.08;;;20.27;;
24030;SDS011;12240;51.142;22.486;2023-02-15T03:25:59;57.75;;;20.17;;
24030;SDS011;12240;51.142;22.486;2023-02-15T03:28:35;56.00;;;19.65;;
24030;SDS011;12240;51.142;22.486;2023-02-15T03:31:11;47.95;;;19.70;;
24030;SDS011;12240;51.142;22.486;2023-02-15T03:33:44;60.25;;;21.00;;
24030;SDS011;12240;51.142;22.486;2023-02-15T03:42:19;53.75;;;20.90;;
24030;SDS011;12240;51.142;22.486;2023-02-15T03:45:11;58.38;;;20.80;;
24030;SDS011;12240;51.142;22.486;2023-02-15T03:47:46;50.13;;;20.42;;
24030;SDS011;12240;51.142;22.486;2023-02-15T03:50:31;56.67;;;19.17;;
24030;SDS011;12240;51.142;22.486;2023-02-15T03:53:22;48.13;;;17.25;;
24030;SDS011;12240;51.142;22.486;2023-02-15T03:55:55;49.70;;;19.38;;
24030;SDS011;12240;51.142;22.486;2023-02-15T03:58:23;51.03;;;19.73;;
24030;SDS011;12240;51.142;22.486;2023-02-15T04:01:12;55.22;;;20.05;;
24030;SDS011;12240;51.142;22.486;2023-02-15T04:04:07;60.63;;;19.80;;
24030;SDS011;12240;51.142;22.486;2023-02-15T04:06:44;47.22;;;19.55;;
24030;SDS011;12240;51.142;22.486;2023-02-15T04:09:12;42.88;;;14.70;;
24030;SDS011;12240;51.142;22.486;2023-02-15T04:11:59;49.67;;;17.02;;
24030;SDS011;12240;51.142;22.486;2023-02-15T04:14:27;46.30;;;18.10;;
24030;SDS011;12240;51.142;22.486;2023-02-15T04:17:14;48.85;;;16.38;;
24030;SDS011;12240;51.142;22.486;2023-02-15T04:19:42;47.63;;;17.00;;
24030;SDS011;12240;51.142;22.486;2023-02-15T04:22:29;43.50;;;17.38;;
24030;SDS011;12240;51.142;22.486;2023-02-15T04:25:16;40.30;;;16.30;;
24030;SDS011;12240;51.142;22.486;2023-02-15T04:27:46;46.50;;;18.38;;
24030;SDS011;12240;51.142;22.486;2023-02-15T04:30:18;43.05;;;16.55;;
24030;SDS011;12240;51.142;22.486;2023-02-15T04:32:49;46.38;;;18.25;;
24030;SDS011;12240;51.142;22.486;2023-02-15T04:35:18;53.33;;;17.52;;
24030;SDS011;12240;51.142;22.486;2023-02-15T04:37:46;52.28;;;19.95;;
24030;SDS011;12240;51.142;22.486;2023-02-15T04:40:14;46.72;;;16.30;;
24030;SDS011;12240;51.142;22.486;2023-02-15T04:42:48;50.75;;;19.70;;
24030;SDS011;12240;51.142;22.486;2023-02-15T04:45:17;48.30;;;18.85;;
24030;SDS011;12240;51.142;22.486;2023-02-15T04:47:45;47.63;;;19.52;;
24030;SDS011;12240;51.142;22.486;2023-02-15T04:50:13;50.17;;;17.63;;
24030;SDS011;12240;51.142;22.486;2023-02-15T04:52:41;45.30;;;17.90;;
24030;SDS011;12240;51.142;22.486;2023-02-15T04:55:09;46.15;;;17.95;;
24030;SDS011;12240;51.142;22.486;2023-02-15T04:57:37;42.67;;;16.98;;
24030;SDS011;12240;51.142;22.486;2023-02-15T05:00:06;37.97;;;16.42;;
24030;SDS011;12240;51.142;22.486;2023-02-15T05:02:36;40.88;;;15.57;;
24030;SDS011;12240;51.142;22.486;2023-02-15T05:05:04;43.03;;;17.17;;
24030;SDS011;12240;51.142;22.486;2023-02-15T05:07:32;42.38;;;17.13;;
24030;SDS011;12240;51.142;22.486;2023-02-15T05:10:04;44.65;;;17.30;;
24030;SDS011;12240;51.142;22.486;2023-02-15T05:12:33;43.90;;;16.75;;
24030;SDS011;12240;51.142;22.486;2023-02-15T05:15:02;41.92;;;17.33;;
24030;SDS011;12240;51.142;22.486;2023-02-15T05:17:30;47.45;;;17.15;;
24030;SDS011;12240;51.142;22.486;2023-02-15T05:19:58;41.03;;;16.38;;
24030;SDS011;12240;51.142;22.486;2023-02-15T05:22:27;38.58;;;17.27;;
24030;SDS011;12240;51.142;22.486;2023-02-15T05:24:54;48.30;;;18.92;;
24030;SDS011;12240;51.142;22.486;2023-02-15T05:27:41;52.50;;;20.90;;
24030;SDS011;12240;51.142;22.486;2023-02-15T05:30:31;63.95;;;21.35;;
24030;SDS011;12240;51.142;22.486;2023-02-15T05:33:00;50.75;;;21.05;;
24030;SDS011;12240;51.142;22.486;2023-02-15T05:35:28;49.20;;;20.52;;
24030;SDS011;12240;51.142;22.486;2023-02-15T05:37:56;49.83;;;19.48;;
24030;SDS011;12240;51.142;22.486;2023-02-15T05:40:24;51.05;;;20.00;;
24030;SDS011;12240;51.142;22.486;2023-02-15T05:42:52;52.72;;;20.85;;
24030;SDS011;12240;51.142;22.486;2023-02-15T05:45:21;50.25;;;19.75;;
24030;SDS011;12240;51.142;22.486;2023-02-15T05:47:49;53.50;;;21.00;;
24030;SDS011;12240;51.142;22.486;2023-02-15T05:50:17;50.70;;;20.33;;
24030;SDS011;12240;51.142;22.486;2023-02-15T05:52:46;53.50;;;20.98;;
24030;SDS011;12240;51.142;22.486;2023-02-15T05:55:18;51.60;;;21.63;;
24030;SDS011;12240;51.142;22.486;2023-02-15T05:57:46;53.35;;;20.52;;
24030;SDS011;12240;51.142;22.486;2023-02-15T06:00:15;52.55;;;19.17;;
24030;SDS011;12240;51.142;22.486;2023-02-15T06:02:44;46.85;;;19.60;;
24030;SDS011;12240;51.142;22.486;2023-02-15T06:05:13;48.60;;;20.00;;
24030;SDS011;12240;51.142;22.486;2023-02-15T06:07:44;53.85;;;21.17;;
24030;SDS011;12240;51.142;22.486;2023-02-15T06:10:13;55.63;;;21.85;;
24030;SDS011;12240;51.142;22.486;2023-02-15T06:12:41;53.72;;;20.45;;
24030;SDS011;12240;51.142;22.486;2023-02-15T06:15:11;57.30;;;21.15;;
24030;SDS011;12240;51.142;22.486;2023-02-15T06:17:41;54.80;;;22.35;;
24030;SDS011;12240;51.142;22.486;2023-02-15T06:20:10;51.33;;;20.73;;
24030;SDS011;12240;51.142;22.486;2023-02-15T06:22:39;51.20;;;20.92;;
24030;SDS011;12240;51.142;22.486;2023-02-15T06:25:08;54.88;;;19.75;;
24030;SDS011;12240;51.142;22.486;2023-02-15T06:27:40;55.78;;;20.80;;
24030;SDS011;12240;51.142;22.486;2023-02-15T06:30:10;49.38;;;19.67;;
24030;SDS011;12240;51.142;22.486;2023-02-15T06:32:39;52.47;;;20.50;;
24030;SDS011;12240;51.142;22.486;2023-02-15T06:35:09;52.38;;;21.45;;
24030;SDS011;12240;51.142;22.486;2023-02-15T06:37:39;59.70;;;21.88;;
24030;SDS011;12240;51.142;22.486;2023-02-15T06:40:07;54.72;;;21.38;;
24030;SDS011;12240;51.142;22.486;2023-02-15T06:42:36;46.38;;;19.05;;
24030;SDS011;12240;51.142;22.486;2023-02-15T06:45:05;46.60;;;19.30;;
24030;SDS011;12240;51.142;22.486;2023-02-15T06:47:34;49.55;;;19.02;;
24030;SDS011;12240;51.142;22.486;2023-02-15T06:50:04;51.65;;;20.35;;
24030;SDS011;12240;51.142;22.486;2023-02-15T06:52:34;54.60;;;19.83;;
24030;SDS011;12240;51.142;22.486;2023-02-15T06:55:05;50.53;;;19.42;;
24030;SDS011;12240;51.142;22.486;2023-02-15T06:57:34;46.05;;;19.25;;
24030;SDS011;12240;51.142;22.486;2023-02-15T07:00:03;49.60;;;19.67;;
24030;SDS011;12240;51.142;22.486;2023-02-15T07:02:33;50.92;;;20.15;;
24030;SDS011;12240;51.142;22.486;2023-02-15T07:05:01;48.97;;;19.42;;
24030;SDS011;12240;51.142;22.486;2023-02-15T07:07:32;50.72;;;19.85;;
24030;SDS011;12240;51.142;22.486;2023-02-15T07:10:00;50.47;;;19.63;;
24030;SDS011;12240;51.142;22.486;2023-02-15T07:12:28;46.55;;;18.50;;
24030;SDS011;12240;51.142;22.486;2023-02-15T07:15:10;49.23;;;19.30;;
24030;SDS011;12240;51.142;22.486;2023-02-15T07:17:42;53.67;;;21.48;;
24030;SDS011;12240;51.142;22.486;2023-02-15T07:20:13;53.63;;;20.88;;
24030;SDS011;12240;51.142;22.486;2023-02-15T07:22:47;57.92;;;23.85;;
24030;SDS011;12240;51.142;22.486;2023-02-15T07:25:16;58.95;;;23.75;;
24030;SDS011;12240;51.142;22.486;2023-02-15T07:27:45;54.67;;;22.35;;
24030;SDS011;12240;51.142;22.486;2023-02-15T07:30:15;59.38;;;21.48;;
24030;SDS011;12240;51.142;22.486;2023-02-15T07:32:44;58.95;;;23.52;;
24030;SDS011;12240;51.142;22.486;2023-02-15T07:35:32;62.78;;;22.77;;
24030;SDS011;12240;51.142;22.486;2023-02-15T07:38:01;60.05;;;21.73;;
24030;SDS011;12240;51.142;22.486;2023-02-15T07:40:29;57.85;;;21.98;;
24030;SDS011;12240;51.142;22.486;2023-02-15T07:42:58;56.88;;;21.00;;
24030;SDS011;12240;51.142;22.486;2023-02-15T07:45:26;67.80;;;21.13;;
24030;SDS011;12240;51.142;22.486;2023-02-15T07:47:54;56.60;;;19.02;;
24030;SDS011;12240;51.142;22.486;2023-02-15T07:50:22;50.17;;;18.67;;
24030;SDS011;12240;51.142;22.486;2023-02-15T07:52:50;48.67;;;18.83;;
24030;SDS011;12240;51.142;22.486;2023-02-15T07:55:18;55.40;;;18.98;;
24030;SDS011;12240;51.142;22.486;2023-02-15T07:57:48;51.78;;;19.35;;
24030;SDS011;12240;51.142;22.486;2023-02-15T08:00:18;48.97;;;17.77;;
24030;SDS011;12240;51.142;22.486;2023-02-15T08:02:52;44.92;;;18.77;;
24030;SDS011;12240;51.142;22.486;2023-02-15T08:05:41;40.17;;;17.25;;
24030;SDS011;12240;51.142;22.486;2023-02-15T08:08:11;42.08;;;17.15;;
24030;SDS011;12240;51.142;22.486;2023-02-15T08:10:59;52.10;;;18.67;;
24030;SDS011;12240;51.142;22.486;2023-02-15T08:16:52;46.28;;;18.27;;
24030;SDS011;12240;51.142;22.486;2023-02-15T08:19:26;50.75;;;19.70;;
24030;SDS011;12240;51.142;22.486;2023-02-15T08:21:58;46.10;;;19.08;;
24030;SDS011;12240;51.142;22.486;2023-02-15T08:24:31;50.60;;;19.73;;
24030;SDS011;12240;51.142;22.486;2023-02-15T08:27:02;47.67;;;18.27;;
24030;SDS011;12240;51.142;22.486;2023-02-15T08:29:33;41.78;;;17.23;;
24030;SDS011;12240;51.142;22.486;2023-02-15T08:32:04;47.85;;;18.70;;
24030;SDS011;12240;51.142;22.486;2023-02-15T08:34:39;47.58;;;18.35;;
24030;SDS011;12240;51.142;22.486;2023-02-15T08:37:09;45.55;;;17.92;;
24030;SDS011;12240;51.142;22.486;2023-02-15T08:39:38;43.35;;;18.17;;
24030;SDS011;12240;51.142;22.486;2023-02-15T08:42:06;43.15;;;17.17;;
24030;SDS011;12240;51.142;22.486;2023-02-15T08:44:34;46.40;;;17.58;;
24030;SDS011;12240;51.142;22.486;2023-02-15T08:47:03;45.80;;;18.40;;
24030;SDS011;12240;51.142;22.486;2023-02-15T08:49:31;46.90;;;17.63;;
24030;SDS011;12240;51.142;22.486;2023-02-15T08:52:00;45.17;;;17.48;;
24030;SDS011;12240;51.142;22.486;2023-02-15T08:54:28;47.70;;;18.25;;
24030;SDS011;12240;51.142;22.486;2023-02-15T08:56:56;47.85;;;18.33;;
24030;SDS011;12240;51.142;22.486;2023-02-15T08:59:25;44.70;;;18.15;;
24030;SDS011;12240;51.142;22.486;2023-02-15T09:01:54;44.28;;;18.52;;
24030;SDS011;12240;51.142;22.486;2023-02-15T09:04:23;47.72;;;19.08;;
24030;SDS011;12240;51.142;22.486;2023-02-15T09:06:53;47.65;;;17.80;;
24030;SDS011;12240;51.142;22.486;2023-02-15T09:09:22;39.58;;;17.25;;
24030;SDS011;12240;51.142;22.486;2023-02-15T09:11:50;41.55;;;17.40;;
24030;SDS011;12240;51.142;22.486;2023-02-15T09:14:25;37.55;;;15.38;;
24030;SDS011;12240;51.142;22.486;2023-02-15T09:16:54;39.10;;;14.70;;
24030;SDS011;12240;51.142;22.486;2023-02-15T09:19:23;37.20;;;15.23;;
24030;SDS011;12240;51.142;22.486;2023-02-15T09:21:52;32.28;;;14.52;;
24030;SDS011;12240;51.142;22.486;2023-02-15T09:24:20;30.25;;;12.77;;
24030;SDS011;12240;51.142;22.486;2023-02-15T09:26:49;31.77;;;13.32;;
24030;SDS011;12240;51.142;22.486;2023-02-15T09:29:18;32.10;;;13.02;;
24030;SDS011;12240;51.142;22.486;2023-02-15T09:31:48;27.50;;;11.98;;
24030;SDS011;12240;51.142;22.486;2023-02-15T09:34:18;28.73;;;12.20;;
24030;SDS011;12240;51.142;22.486;2023-02-15T09:36:49;28.23;;;13.50;;
24030;SDS011;12240;51.142;22.486;2023-02-15T09:39:22;27.52;;;12.32;;
24030;SDS011;12240;51.142;22.486;2023-02-15T09:52:51;26.30;;;11.48;;
24030;SDS011;12240;51.142;22.486;2023-02-15T10:04:48;26.40;;;10.40;;
24030;SDS011;12240;51.142;22.486;2023-02-15T10:23:13;25.42;;;12.20;;
24030;SDS011;12240;51.142;22.486;2023-02-15T10:29:09;31.23;;;11.73;;
24030;SDS011;12240;51.142;22.486;2023-02-15T10:32:02;24.45;;;11.65;;
24030;SDS011;12240;51.142;22.486;2023-02-15T10:55:08;24.63;;;11.65;;
24030;SDS011;12240;51.142;22.486;2023-02-15T11:00:35;24.15;;;11.60;;
24030;SDS011;12240;51.142;22.486;2023-02-15T11:06:17;26.92;;;12.07;;
24030;SDS011;12240;51.142;22.486;2023-02-15T11:09:00;28.83;;;13.00;;
24030;SDS011;12240;51.142;22.486;2023-02-15T11:11:37;23.60;;;11.50;;
24030;SDS011;12240;51.142;22.486;2023-02-15T11:14:17;24.67;;;11.90;;
24030;SDS011;12240;51.142;22.486;2023-02-15T11:17:20;27.52;;;11.25;;
24030;SDS011;12240;51.142;22.486;2023-02-15T11:20:41;23.30;;;10.80;;
24030;SDS011;12240;51.142;22.486;2023-02-15T11:22:49;25.77;;;11.32;;
24030;SDS011;12240;51.142;22.486;2023-02-15T11:25:23;29.27;;;12.27;;
24030;SDS011;12240;51.142;22.486;2023-02-15T11:28:00;24.52;;;11.52;;
24030;SDS011;12240;51.142;22.486;2023-02-15T11:30:42;28.33;;;11.52;;
24030;SDS011;12240;51.142;22.486;2023-02-15T11:33:15;26.65;;;10.68;;
24030;SDS011;12240;51.142;22.486;2023-02-15T11:36:09;25.38;;;10.63;;
24030;SDS011;12240;51.142;22.486;2023-02-15T11:38:49;26.25;;;12.02;;
24030;SDS011;12240;51.142;22.486;2023-02-15T11:41:27;30.02;;;11.88;;
24030;SDS011;12240;51.142;22.486;2023-02-15T11:47:07;29.15;;;13.18;;
24030;SDS011;12240;51.142;22.486;2023-02-15T11:49:39;34.72;;;13.60;;
24030;SDS011;12240;51.142;22.486;2023-02-15T11:52:10;33.40;;;13.07;;
24030;SDS011;12240;51.142;22.486;2023-02-15T11:54:43;34.13;;;14.18;;
24030;SDS011;12240;51.142;22.486;2023-02-15T12:00:39;30.38;;;12.05;;
24030;SDS011;12240;51.142;22.486;2023-02-15T12:03:17;39.90;;;14.45;;
24030;SDS011;12240;51.142;22.486;2023-02-15T12:06:22;31.40;;;11.70;;
24030;SDS011;12240;51.142;22.486;2023-02-15T12:09:03;37.22;;;12.65;;
24030;SDS011;12240;51.142;22.486;2023-02-15T12:12:22;34.28;;;11.77;;
24030;SDS011;12240;51.142;22.486;2023-02-15T12:15:03;38.88;;;13.20;;
24030;SDS011;12240;51.142;22.486;2023-02-15T12:17:38;37.10;;;13.25;;
24030;SDS011;12240;51.142;22.486;2023-02-15T12:22:48;41.58;;;14.88;;
24030;SDS011;12240;51.142;22.486;2023-02-15T12:25:42;36.30;;;13.85;;
24030;SDS011;12240;51.142;22.486;2023-02-15T12:28:27;41.03;;;15.10;;
24030;SDS011;12240;51.142;22.486;2023-02-15T12:31:31;39.72;;;14.73;;
24030;SDS011;12240;51.142;22.486;2023-02-15T12:34:11;33.42;;;13.05;;
24030;SDS011;12240;51.142;22.486;2023-02-15T12:36:54;46.35;;;14.00;;
24030;SDS011;12240;51.142;22.486;2023-02-15T12:39:28;38.80;;;13.40;;
24030;SDS011;12240;51.142;22.486;2023-02-15T12:42:08;41.30;;;12.63;;
24030;SDS011;12240;51.142;22.486;2023-02-15T12:48:08;43.00;;;13.75;;
24030;SDS011;12240;51.142;22.486;2023-02-15T12:50:40;41.83;;;13.63;;
24030;SDS011;12240;51.142;22.486;2023-02-15T12:53:22;32.33;;;12.70;;
24030;SDS011;12240;51.142;22.486;2023-02-15T12:58:31;31.95;;;12.52;;
24030;SDS011;12240;51.142;22.486;2023-02-15T13:01:17;33.45;;;12.80;;
24030;SDS011;12240;51.142;22.486;2023-02-15T13:06:32;31.55;;;13.40;;
24030;SDS011;12240;51.142;22.486;2023-02-15T13:09:07;37.97;;;14.02;;
24030;SDS011;12240;51.142;22.486;2023-02-15T13:11:53;40.50;;;15.30;;
24030;SDS011;12240;51.142;22.486;2023-02-15T13:14:25;31.40;;;12.85;;
24030;SDS011;12240;51.142;22.486;2023-02-15T13:17:00;34.67;;;13.88;;
24030;SDS011;12240;51.142;22.486;2023-02-15T13:22:26;38.38;;;14.48;;
24030;SDS011;12240;51.142;22.486;2023-02-15T13:25:11;38.40;;;13.68;;
24030;SDS011;12240;51.142;22.486;2023-02-15T13:27:57;33.03;;;12.70;;
24030;SDS011;12240;51.142;22.486;2023-02-15T13:30:36;39.47;;;14.10;;
24030;SDS011;12240;51.142;22.486;2023-02-15T13:33:24;39.25;;;13.18;;
24030;SDS011;12240;51.142;22.486;2023-02-15T13:41:59;50.20;;;14.05;;
24030;SDS011;12240;51.142;22.486;2023-02-15T13:45:00;42.35;;;12.85;;
24030;SDS011;12240;51.142;22.486;2023-02-15T13:50:21;46.20;;;14.65;;
24030;SDS011;12240;51.142;22.486;2023-02-15T13:56:01;50.40;;;14.90;;
24030;SDS011;12240;51.142;22.486;2023-02-15T14:01:51;58.22;;;17.33;;
24030;SDS011;12240;51.142;22.486;2023-02-15T14:14:05;36.35;;;13.35;;
24030;SDS011;12240;51.142;22.486;2023-02-15T14:22:43;37.03;;;14.52;;
24030;SDS011;12240;51.142;22.486;2023-02-15T14:30:55;36.23;;;14.13;;
24030;SDS011;12240;51.142;22.486;2023-02-15T14:33:35;35.92;;;13.15;;
24030;SDS011;12240;51.142;22.486;2023-02-15T14:36:06;33.35;;;14.27;;
24030;SDS011;12240;51.142;22.486;2023-02-15T14:39:16;39.53;;;16.00;;
24030;SDS011;12240;51.142;22.486;2023-02-15T14:42:25;35.78;;;14.27;;
24030;SDS011;12240;51.142;22.486;2023-02-15T14:45:04;34.65;;;14.35;;
24030;SDS011;12240;51.142;22.486;2023-02-15T14:48:09;36.05;;;14.50;;
24030;SDS011;12240;51.142;22.486;2023-02-15T14:51:05;34.92;;;13.90;;
24030;SDS011;12240;51.142;22.486;2023-02-15T14:58:37;38.47;;;15.18;;
24030;SDS011;12240;51.142;22.486;2023-02-15T15:01:32;37.70;;;14.10;;
24030;SDS011;12240;51.142;22.486;2023-02-15T15:06:59;39.58;;;16.13;;
24030;SDS011;12240;51.142;22.486;2023-02-15T15:09:39;35.90;;;14.32;;
24030;SDS011;12240;51.142;22.486;2023-02-15T15:14:55;33.30;;;13.80;;
24030;SDS011;12240;51.142;22.486;2023-02-15T15:22:41;36.85;;;15.20;;
24030;SDS011;12240;51.142;22.486;2023-02-15T15:25:11;35.13;;;14.00;;
24030;SDS011;12240;51.142;22.486;2023-02-15T15:27:58;33.47;;;12.48;;
24030;SDS011;12240;51.142;22.486;2023-02-15T15:32:59;29.10;;;12.30;;
24030;SDS011;12240;51.142;22.486;2023-02-15T15:42:33;33.63;;;13.02;;
24030;SDS011;12240;51.142;22.486;2023-02-15T15:49:06;31.75;;;13.00;;
24030;SDS011;12240;51.142;22.486;2023-02-15T15:51:40;33.10;;;14.57;;
24030;SDS011;12240;51.142;22.486;2023-02-15T15:54:16;32.83;;;14.48;;
24030;SDS011;12240;51.142;22.486;2023-02-15T15:57:03;37.42;;;15.57;;
24030;SDS011;12240;51.142;22.486;2023-02-15T15:59:34;44.58;;;15.57;;
24030;SDS011;12240;51.142;22.486;2023-02-15T16:02:06;50.00;;;15.98;;
24030;SDS011;12240;51.142;22.486;2023-02-15T16:04:38;51.88;;;17.45;;
24030;SDS011;12240;51.142;22.486;2023-02-15T16:09:54;62.60;;;18.98;;
24030;SDS011;12240;51.142;22.486;2023-02-15T16:12:31;57.70;;;18.13;;
24030;SDS011;12240;51.142;22.486;2023-02-15T16:15:19;55.25;;;18.20;;
24030;SDS011;12240;51.142;22.486;2023-02-15T16:18:00;62.22;;;19.02;;
24030;SDS011;12240;51.142;22.486;2023-02-15T16:20:33;64.90;;;20.90;;
24030;SDS011;12240;51.142;22.486;2023-02-15T16:26:26;63.65;;;20.40;;
24030;SDS011;12240;51.142;22.486;2023-02-15T16:29:25;68.35;;;20.92;;
24030;SDS011;12240;51.142;22.486;2023-02-15T16:31:59;71.70;;;22.58;;
24030;SDS011;12240;51.142;22.486;2023-02-15T16:34:33;76.03;;;24.13;;
24030;SDS011;12240;51.142;22.486;2023-02-15T16:37:14;69.90;;;23.02;;
24030;SDS011;12240;51.142;22.486;2023-02-15T16:39:45;91.70;;;25.65;;
24030;SDS011;12240;51.142;22.486;2023-02-15T16:42:17;107.25;;;32.97;;
24030;SDS011;12240;51.142;22.486;2023-02-15T16:44:48;146.55;;;42.08;;
24030;SDS011;12240;51.142;22.486;2023-02-15T16:47:44;114.55;;;32.03;;
24030;SDS011;12240;51.142;22.486;2023-02-15T16:50:19;72.40;;;23.63;;
24030;SDS011;12240;51.142;22.486;2023-02-15T16:52:53;72.93;;;23.33;;
24030;SDS011;12240;51.142;22.486;2023-02-15T16:55:24;64.43;;;21.15;;
24030;SDS011;12240;51.142;22.486;2023-02-15T16:57:57;67.57;;;21.00;;
24030;SDS011;12240;51.142;22.486;2023-02-15T17:00:31;72.45;;;22.80;;
24030;SDS011;12240;51.142;22.486;2023-02-15T17:20:58;86.60;;;26.33;;
24030;SDS011;12240;51.142;22.486;2023-02-15T17:23:47;95.85;;;27.65;;
24030;SDS011;12240;51.142;22.486;2023-02-15T17:26:19;91.10;;;25.85;;
24030;SDS011;12240;51.142;22.486;2023-02-15T17:28:58;85.50;;;26.48;;
24030;SDS011;12240;51.142;22.486;2023-02-15T17:31:37;90.25;;;27.50;;
24030;SDS011;12240;51.142;22.486;2023-02-15T17:34:09;103.40;;;31.60;;
24030;SDS011;12240;51.142;22.486;2023-02-15T17:42:49;138.43;;;40.38;;
24030;SDS011;12240;51.142;22.486;2023-02-15T17:45:18;135.73;;;39.63;;
24030;SDS011;12240;51.142;22.486;2023-02-15T17:47:48;145.68;;;45.08;;
24030;SDS011;12240;51.142;22.486;2023-02-15T17:50:27;136.73;;;41.92;;
24030;SDS011;12240;51.142;22.486;2023-02-15T17:52:58;151.80;;;44.17;;
24030;SDS011;12240;51.142;22.486;2023-02-15T17:55:28;147.68;;;45.65;;
24030;SDS011;12240;51.142;22.486;2023-02-15T17:58:07;141.63;;;46.60;;
24030;SDS011;12240;51.142;22.486;2023-02-15T18:00:43;141.07;;;44.00;;
24030;SDS011;12240;51.142;22.486;2023-02-15T18:06:37;143.82;;;43.83;;
24030;SDS011;12240;51.142;22.486;2023-02-15T18:12:32;119.70;;;35.25;;
24030;SDS011;12240;51.142;22.486;2023-02-15T18:15:06;136.73;;;36.75;;
24030;SDS011;12240;51.142;22.486;2023-02-15T18:17:41;118.50;;;35.70;;
24030;SDS011;12240;51.142;22.486;2023-02-15T18:20:20;109.75;;;33.53;;
24030;SDS011;12240;51.142;22.486;2023-02-15T18:23:04;132.98;;;38.85;;
24030;SDS011;12240;51.142;22.486;2023-02-15T18:25:40;127.93;;;36.15;;
24030;SDS011;12240;51.142;22.486;2023-02-15T18:28:09;106.28;;;33.22;;
24030;SDS011;12240;51.142;22.486;2023-02-15T18:30:38;125.15;;;36.90;;
24030;SDS011;12240;51.142;22.486;2023-02-15T18:33:24;119.22;;;37.50;;
24030;SDS011;12240;51.142;22.486;2023-02-15T18:36:02;119.18;;;36.55;;
24030;SDS011;12240;51.142;22.486;2023-02-15T18:38:33;97.70;;;32.80;;
24030;SDS011;12240;51.142;22.486;2023-02-15T18:41:02;131.38;;;39.95;;
24030;SDS011;12240;51.142;22.486;2023-02-15T18:43:31;216.80;;;66.07;;